sensor_id;sensor_type;location;lat;lon;timestamp;pressure;altitude;pressure_sealevel;temperature;humidity
44481;BME280;30184;42.018;23.670;2023-02-18T00:00:14;92352.13;;;-0.94;75.45
44481;BME280;30184;42.018;23.670;2023-02-18T00:02:45;92338.78;;;-0.94;75.28
44481;BME280;30184;42.018;23.670;2023-02-18T00:05:14;92321.47;;;-1.28;75.28
44481;BME280;30184;42.018;23.670;2023-02-18T00:07:44;92099.59;;;-2.59;75.42
44481;BME280;30184;42.018;23.670;2023-02-18T00:10:14;92328.34;;;-0.99;75.72
44481;BME280;30184;42.018;23.670;2023-02-18T00:12:44;92318.19;;;-1.09;75.80
44481;BME280;30184;42.018;23.670;2023-02-18T00:15:13;92329.81;;;-1.02;75.96
44481;BME280;30184;42.018;23.670;2023-02-18T00:17:42;92331.63;;;-1.06;76.20
44481;BME280;30184;42.018;23.670;2023-02-18T00:20:12;92364.34;;;-1.05;75.95
44481;BME280;30184;42.018;23.670;2023-02-18T00:22:40;92330.06;;;-1.07;76.04
44481;BME280;30184;42.018;23.670;2023-02-18T00:25:09;92321.28;;;-1.07;76.13
44481;BME280;30184;42.018;23.670;2023-02-18T00:27:38;92263.94;;;-1.85;76.22
44481;BME280;30184;42.018;23.670;2023-02-18T00:30:10;92306.50;;;-1.21;75.92
44481;BME280;30184;42.018;23.670;2023-02-18T00:32:39;92189.47;;;-2.98;75.59
44481;BME280;30184;42.018;23.670;2023-02-18T00:35:08;92327.28;;;-1.10;75.79
44481;BME280;30184;42.018;23.670;2023-02-18T00:37:37;92318.53;;;-1.11;75.65
44481;BME280;30184;42.018;23.670;2023-02-18T00:40:07;92315.09;;;-1.11;75.95
44481;BME280;30184;42.018;23.670;2023-02-18T00:42:36;92322.31;;;-1.12;75.93
44481;BME280;30184;42.018;23.670;2023-02-18T00:45:06;92305.13;;;-1.15;75.90
44481;BME280;30184;42.018;23.670;2023-02-18T00:47:36;92319.56;;;-1.16;75.94
44481;BME280;30184;42.018;23.670;2023-02-18T00:50:06;92312.47;;;-1.24;76.32
44481;BME280;30184;42.018;23.670;2023-02-18T00:52:35;92317.22;;;-1.17;76.10
44481;BME280;30184;42.018;23.670;2023-02-18T00:55:05;92303.47;;;-1.19;76.00
44481;BME280;30184;42.018;23.670;2023-02-18T00:57:34;92311.81;;;-1.21;76.27
44481;BME280;30184;42.018;23.670;2023-02-18T01:00:03;92225.81;;;-1.77;76.33
44481;BME280;30184;42.018;23.670;2023-02-18T01:02:33;92286.97;;;-1.25;76.59
44481;BME280;30184;42.018;23.670;2023-02-18T01:05:04;92130.00;;;-2.33;76.38
44481;BME280;30184;42.018;23.670;2023-02-18T01:07:33;92241.94;;;-1.58;76.77
44481;BME280;30184;42.018;23.670;2023-02-18T01:10:02;92317.63;;;-1.31;76.97
44481;BME280;30184;42.018;23.670;2023-02-18T01:12:31;92275.78;;;-1.30;76.85
44481;BME280;30184;42.018;23.670;2023-02-18T01:15:00;92142.97;;;-2.55;76.65
44481;BME280;30184;42.018;23.670;2023-02-18T01:17:30;92232.84;;;-1.97;76.75
44481;BME280;30184;42.018;23.670;2023-02-18T01:19:58;92288.22;;;-1.34;76.76
44481;BME280;30184;42.018;23.670;2023-02-18T01:22:29;92261.91;;;-1.36;76.66
44481;BME280;30184;42.018;23.670;2023-02-18T01:24:58;92248.16;;;-1.38;76.84
44481;BME280;30184;42.018;23.670;2023-02-18T01:27:26;92253.50;;;-1.38;76.62
44481;BME280;30184;42.018;23.670;2023-02-18T01:29:55;92245.50;;;-1.38;76.33
44481;BME280;30184;42.018;23.670;2023-02-18T01:32:24;92246.03;;;-1.60;76.23
44481;BME280;30184;42.018;23.670;2023-02-18T01:34:53;92246.22;;;-1.41;76.30
44481;BME280;30184;42.018;23.670;2023-02-18T01:37:22;92243.53;;;-1.41;76.32
44481;BME280;30184;42.018;23.670;2023-02-18T01:39:53;92244.66;;;-1.42;76.29
44481;BME280;30184;42.018;23.670;2023-02-18T01:42:26;92218.28;;;-1.87;76.21
44481;BME280;30184;42.018;23.670;2023-02-18T01:47:57;92236.88;;;-1.47;76.45
44481;BME280;30184;42.018;23.670;2023-02-18T01:50:27;92246.34;;;-1.49;76.65
44481;BME280;30184;42.018;23.670;2023-02-18T01:52:56;92237.59;;;-1.50;76.97
44481;BME280;30184;42.018;23.670;2023-02-18T01:55:27;92137.34;;;-2.78;76.90
44481;BME280;30184;42.018;23.670;2023-02-18T01:57:56;92241.25;;;-1.55;77.27
44481;BME280;30184;42.018;23.670;2023-02-18T02:00:25;92109.28;;;-2.39;77.31
44481;BME280;30184;42.018;23.670;2023-02-18T02:02:55;92236.25;;;-1.56;77.39
44481;BME280;30184;42.018;23.670;2023-02-18T02:05:28;92223.41;;;-1.66;77.19
44481;BME280;30184;42.018;23.670;2023-02-18T02:07:59;92122.38;;;-2.46;77.37
44481;BME280;30184;42.018;23.670;2023-02-18T02:10:39;92238.84;;;-1.60;77.57
44481;BME280;30184;42.018;23.670;2023-02-18T02:13:15;92216.03;;;-1.73;77.76
44481;BME280;30184;42.018;23.670;2023-02-18T02:15:53;92198.25;;;-1.97;77.68
44481;BME280;30184;42.018;23.670;2023-02-18T02:18:29;92095.00;;;-2.47;77.46
44481;BME280;30184;42.018;23.670;2023-02-18T02:27:41;92241.63;;;-1.68;77.74
44481;BME280;30184;42.018;23.670;2023-02-18T02:30:36;92209.72;;;-1.80;77.92
44481;BME280;30184;42.018;23.670;2023-02-18T02:33:23;92235.09;;;-1.71;78.29
44481;BME280;30184;42.018;23.670;2023-02-18T02:36:02;92238.09;;;-1.72;78.28
44481;BME280;30184;42.018;23.670;2023-02-18T02:38:38;92227.78;;;-1.74;78.11
44481;BME280;30184;42.018;23.670;2023-02-18T02:41:17;92229.72;;;-1.86;78.38
44481;BME280;30184;42.018;23.670;2023-02-18T02:43:57;92231.91;;;-1.76;78.32
44481;BME280;30184;42.018;23.670;2023-02-18T02:46:33;92169.88;;;-2.57;78.40
44481;BME280;30184;42.018;23.670;2023-02-18T02:49:14;92228.81;;;-1.78;78.46
44481;BME280;30184;42.018;23.670;2023-02-18T02:51:52;92233.34;;;-1.79;78.59
44481;BME280;30184;42.018;23.670;2023-02-18T02:54:26;92238.66;;;-1.79;78.74
44481;BME280;30184;42.018;23.670;2023-02-18T02:57:08;92241.66;;;-1.80;78.75
44481;BME280;30184;42.018;23.670;2023-02-18T02:59:48;92246.97;;;-1.80;78.96
44481;BME280;30184;42.018;23.670;2023-02-18T03:02:27;92223.50;;;-1.91;79.08
44481;BME280;30184;42.018;23.670;2023-02-18T03:05:14;92230.53;;;-2.22;79.07
44481;BME280;30184;42.018;23.670;2023-02-18T03:08:09;92244.66;;;-1.82;79.04
44481;BME280;30184;42.018;23.670;2023-02-18T03:10:47;92236.66;;;-1.82;79.15
44481;BME280;30184;42.018;23.670;2023-02-18T03:13:28;92236.66;;;-1.82;79.15
44481;BME280;30184;42.018;23.670;2023-02-18T03:16:09;92194.31;;;-2.15;79.05
44481;BME280;30184;42.018;23.670;2023-02-18T03:18:45;92292.09;;;-1.84;79.04
44481;BME280;30184;42.018;23.670;2023-02-18T03:21:22;92180.38;;;-2.24;79.34
44481;BME280;30184;42.018;23.670;2023-02-18T03:23:56;92219.47;;;-1.84;79.56
44481;BME280;30184;42.018;23.670;2023-02-18T03:26:27;92222.16;;;-1.84;79.48
44481;BME280;30184;42.018;23.670;2023-02-18T03:29:02;92216.03;;;-1.85;79.64
44481;BME280;30184;42.018;23.670;2023-02-18T03:31:33;92217.97;;;-1.85;79.57
44481;BME280;30184;42.018;23.670;2023-02-18T03:34:08;92206.53;;;-1.86;79.87
44481;BME280;30184;42.018;23.670;2023-02-18T03:36:39;92214.84;;;-1.88;79.81
44481;BME280;30184;42.018;23.670;2023-02-18T03:39:14;92208.75;;;-1.88;79.72
44481;BME280;30184;42.018;23.670;2023-02-18T03:41:43;92205.31;;;-1.89;79.63
44481;BME280;30184;42.018;23.670;2023-02-18T03:44:13;92202.94;;;-2.30;79.56
44481;BME280;30184;42.018;23.670;2023-02-18T03:46:43;92218.19;;;-1.91;79.76
44481;BME280;30184;42.018;23.670;2023-02-18T03:49:14;92149.63;;;-2.86;79.71
44481;BME280;30184;42.018;23.670;2023-02-18T03:51:43;92220.84;;;-1.91;79.91
44481;BME280;30184;42.018;23.670;2023-02-18T03:54:13;92227.25;;;-1.92;79.98
44481;BME280;30184;42.018;23.670;2023-02-18T03:56:43;92211.31;;;-1.92;79.99
44481;BME280;30184;42.018;23.670;2023-02-18T03:59:12;92214.28;;;-1.93;80.18
44481;BME280;30184;42.018;23.670;2023-02-18T04:01:41;91996.56;;;-3.30;79.89
44481;BME280;30184;42.018;23.670;2023-02-18T04:04:10;92202.56;;;-1.92;79.91
44481;BME280;30184;42.018;23.670;2023-02-18T04:06:39;92206.00;;;-1.92;79.46
44481;BME280;30184;42.018;23.670;2023-02-18T04:09:08;92205.66;;;-1.90;78.94
44481;BME280;30184;42.018;23.670;2023-02-18T04:11:39;92253.56;;;-2.14;78.98
44481;BME280;30184;42.018;23.670;2023-02-18T04:14:09;92225.88;;;-2.13;78.75
44481;BME280;30184;42.018;23.670;2023-02-18T04:16:40;92214.41;;;-1.90;78.89
44481;BME280;30184;42.018;23.670;2023-02-18T04:19:09;92217.84;;;-1.89;78.93
44481;BME280;30184;42.018;23.670;2023-02-18T04:21:38;92165.84;;;-2.27;79.22
44481;BME280;30184;42.018;23.670;2023-02-18T04:24:07;92221.63;;;-1.90;79.28
44481;BME280;30184;42.018;23.670;2023-02-18T04:26:38;92220.06;;;-1.91;79.26
44481;BME280;30184;42.018;23.670;2023-02-18T04:29:06;92102.72;;;-2.70;78.82
44481;BME280;30184;42.018;23.670;2023-02-18T04:31:35;92234.91;;;-1.90;78.85
44481;BME280;30184;42.018;23.670;2023-02-18T04:34:04;92240.22;;;-1.90;78.99
44481;BME280;30184;42.018;23.670;2023-02-18T04:36:34;92241.34;;;-1.91;79.09
44481;BME280;30184;42.018;23.670;2023-02-18T04:39:03;92248.53;;;-1.92;79.15
44481;BME280;30184;42.018;23.670;2023-02-18T04:41:32;92247.44;;;-1.91;79.10
44481;BME280;30184;42.018;23.670;2023-02-18T04:44:02;92095.84;;;-3.31;79.06
44481;BME280;30184;42.018;23.670;2023-02-18T04:46:31;92240.56;;;-1.92;79.17
44481;BME280;30184;42.018;23.670;2023-02-18T04:49:00;92237.91;;;-1.92;79.04
44481;BME280;30184;42.018;23.670;2023-02-18T04:51:29;92243.22;;;-1.92;78.94
44481;BME280;30184;42.018;23.670;2023-02-18T04:53:58;92240.56;;;-1.92;78.91
44481;BME280;30184;42.018;23.670;2023-02-18T04:56:27;92239.00;;;-1.93;79.38
44481;BME280;30184;42.018;23.670;2023-02-18T04:58:56;92247.44;;;-1.91;79.04
44481;BME280;30184;42.018;23.670;2023-02-18T05:01:26;92216.78;;;-2.12;79.17
44481;BME280;30184;42.018;23.670;2023-02-18T05:03:55;92236.47;;;-1.89;79.18
44481;BME280;30184;42.018;23.670;2023-02-18T05:06:24;92241.47;;;-1.88;79.09
44481;BME280;30184;42.018;23.670;2023-02-18T05:08:53;92243.78;;;-1.86;79.06
44481;BME280;30184;42.018;23.670;2023-02-18T05:11:22;92240.56;;;-1.92;79.20
44481;BME280;30184;42.018;23.670;2023-02-18T05:13:51;92254.63;;;-1.79;78.95
44481;BME280;30184;42.018;23.670;2023-02-18T05:16:20;92241.78;;;-1.77;78.91
44481;BME280;30184;42.018;23.670;2023-02-18T05:18:51;92248.72;;;-1.72;78.83
44481;BME280;30184;42.018;23.670;2023-02-18T05:21:20;92240.31;;;-1.74;79.39
44481;BME280;30184;42.018;23.670;2023-02-18T05:23:49;92247.28;;;-1.70;79.46
44481;BME280;30184;42.018;23.670;2023-02-18T05:26:17;92260.69;;;-1.66;79.14
44481;BME280;30184;42.018;23.670;2023-02-18T05:28:46;92251.69;;;-1.62;78.64
44481;BME280;30184;42.018;23.670;2023-02-18T05:31:15;92289.09;;;-1.82;78.34
44481;BME280;30184;42.018;23.670;2023-02-18T05:33:44;92265.19;;;-1.55;78.25
44481;BME280;30184;42.018;23.670;2023-02-18T05:36:15;92235.69;;;-1.77;78.15
44481;BME280;30184;42.018;23.670;2023-02-18T05:38:44;92262.84;;;-1.44;78.14
44481;BME280;30184;42.018;23.670;2023-02-18T05:41:13;92261.91;;;-1.64;78.23
44481;BME280;30184;42.018;23.670;2023-02-18T05:43:42;92269.56;;;-1.34;78.30
44481;BME280;30184;42.018;23.670;2023-02-18T05:46:28;92271.25;;;-1.30;77.98
44481;BME280;30184;42.018;23.670;2023-02-18T05:48:57;92266.88;;;-1.22;77.86
44481;BME280;30184;42.018;23.670;2023-02-18T05:51:27;92252.53;;;-1.18;77.83
44481;BME280;30184;42.018;23.670;2023-02-18T05:53:56;92248.94;;;-1.09;77.53
44481;BME280;30184;42.018;23.670;2023-02-18T05:56:27;92254.47;;;-1.02;77.18
44481;BME280;30184;42.018;23.670;2023-02-18T05:58:56;92250.09;;;-0.95;76.90
44481;BME280;30184;42.018;23.670;2023-02-18T06:01:25;92260.16;;;-0.88;76.79
44481;BME280;30184;42.018;23.670;2023-02-18T06:03:54;92247.34;;;-0.83;76.76
44481;BME280;30184;42.018;23.670;2023-02-18T06:06:23;92260.88;;;-0.76;76.70
44481;BME280;30184;42.018;23.670;2023-02-18T06:08:53;92105.47;;;-1.86;76.42
44481;BME280;30184;42.018;23.670;2023-02-18T06:11:22;92219.59;;;-0.97;76.75
44481;BME280;30184;42.018;23.670;2023-02-18T06:13:51;92194.28;;;-1.19;76.26
44481;BME280;30184;42.018;23.670;2023-02-18T06:16:20;92257.19;;;-0.40;76.24
44481;BME280;30184;42.018;23.670;2023-02-18T06:18:49;92263.13;;;-0.30;76.05
44481;BME280;30184;42.018;23.670;2023-02-18T06:21:18;92262.63;;;-0.20;75.57
44481;BME280;30184;42.018;23.670;2023-02-18T06:23:47;92249.09;;;-0.12;74.97
44481;BME280;30184;42.018;23.670;2023-02-18T06:26:17;92200.78;;;-0.73;74.72
44481;BME280;30184;42.018;23.670;2023-02-18T06:28:46;92272.41;;;0.07;74.45
44481;BME280;30184;42.018;23.670;2023-02-18T06:31:15;92256.97;;;0.16;74.29
44481;BME280;30184;42.018;23.670;2023-02-18T06:33:44;92272.06;;;0.28;73.77
44481;BME280;30184;42.018;23.670;2023-02-18T06:36:13;92272.31;;;0.38;73.55
44481;BME280;30184;42.018;23.670;2023-02-18T06:38:43;92267.97;;;0.50;73.23
44481;BME280;30184;42.018;23.670;2023-02-18T06:41:13;92267.91;;;0.65;73.19
44481;BME280;30184;42.018;23.670;2023-02-18T06:43:43;92268.56;;;0.78;72.53
44481;BME280;30184;42.018;23.670;2023-02-18T06:46:12;92267.72;;;0.93;72.51
44481;BME280;30184;42.018;23.670;2023-02-18T06:48:41;92266.88;;;1.08;72.08
44481;BME280;30184;42.018;23.670;2023-02-18T06:51:10;92266.78;;;1.24;70.09
44481;BME280;30184;42.018;23.670;2023-02-18T06:53:39;92264.44;;;1.42;70.20
44481;BME280;30184;42.018;23.670;2023-02-18T06:56:08;92219.31;;;1.40;70.22
44481;BME280;30184;42.018;23.670;2023-02-18T06:58:37;92201.09;;;1.46;68.97
44481;BME280;30184;42.018;23.670;2023-02-18T07:01:08;92242.13;;;2.03;68.39
44481;BME280;30184;42.018;23.670;2023-02-18T07:03:37;92216.38;;;2.21;68.08
44481;BME280;30184;42.018;23.670;2023-02-18T07:06:06;92237.09;;;2.54;66.66
44481;BME280;30184;42.018;23.670;2023-02-18T07:08:35;92234.94;;;2.63;65.22
44481;BME280;30184;42.018;23.670;2023-02-18T07:11:06;92215.09;;;2.68;65.76
44481;BME280;30184;42.018;23.670;2023-02-18T07:13:35;92235.00;;;3.00;65.37
44481;BME280;30184;42.018;23.670;2023-02-18T07:16:04;92207.09;;;3.05;64.51
44481;BME280;30184;42.018;23.670;2023-02-18T07:18:35;92233.97;;;3.49;64.00
44481;BME280;30184;42.018;23.670;2023-02-18T07:21:04;92242.25;;;3.70;61.23
44481;BME280;30184;42.018;23.670;2023-02-18T07:23:33;92220.19;;;3.94;61.52
44481;BME280;30184;42.018;23.670;2023-02-18T07:26:04;92223.44;;;4.18;60.36
44481;BME280;30184;42.018;23.670;2023-02-18T07:28:33;92222.09;;;4.48;60.10
44481;BME280;30184;42.018;23.670;2023-02-18T07:31:02;92120.03;;;3.90;59.99
44481;BME280;30184;42.018;23.670;2023-02-18T07:33:31;92227.38;;;5.03;58.41
44481;BME280;30184;42.018;23.670;2023-02-18T07:36:02;92220.91;;;5.29;57.37
44481;BME280;30184;42.018;23.670;2023-02-18T07:38:32;92207.91;;;5.45;56.62
44481;BME280;30184;42.018;23.670;2023-02-18T07:41:01;92211.38;;;5.67;55.82
44481;BME280;30184;42.018;23.670;2023-02-18T07:43:30;92237.97;;;5.79;55.02
44481;BME280;30184;42.018;23.670;2023-02-18T07:46:04;92134.44;;;5.41;55.21
44481;BME280;30184;42.018;23.670;2023-02-18T07:48:34;92184.50;;;6.20;55.29
44481;BME280;30184;42.018;23.670;2023-02-18T07:51:07;92149.44;;;6.31;54.36
44481;BME280;30184;42.018;23.670;2023-02-18T07:53:36;92196.38;;;6.62;52.64
44481;BME280;30184;42.018;23.670;2023-02-18T07:56:06;92185.59;;;6.62;49.22
44481;BME280;30184;42.018;23.670;2023-02-18T07:58:36;92122.44;;;6.56;50.85
44481;BME280;30184;42.018;23.670;2023-02-18T08:01:10;92098.69;;;5.73;50.08
44481;BME280;30184;42.018;23.670;2023-02-18T08:03:39;92170.00;;;7.08;50.66
44481;BME280;30184;42.018;23.670;2023-02-18T08:06:20;92118.13;;;6.76;50.29
44481;BME280;30184;42.018;23.670;2023-02-18T08:08:49;92175.75;;;7.21;48.79
44481;BME280;30184;42.018;23.670;2023-02-18T08:11:19;92172.25;;;7.24;48.93
44481;BME280;30184;42.018;23.670;2023-02-18T08:13:48;92161.81;;;7.30;49.17
44481;BME280;30184;42.018;23.670;2023-02-18T08:16:18;92166.00;;;7.38;48.98
44481;BME280;30184;42.018;23.670;2023-02-18T08:18:47;92144.47;;;7.24;48.53
44481;BME280;30184;42.018;23.670;2023-02-18T08:21:20;92141.75;;;7.31;49.31
44481;BME280;30184;42.018;23.670;2023-02-18T08:23:49;92162.84;;;7.50;49.52
44481;BME280;30184;42.018;23.670;2023-02-18T08:26:20;92167.41;;;7.60;49.40
44481;BME280;30184;42.018;23.670;2023-02-18T08:28:48;92156.19;;;7.69;49.14
44481;BME280;30184;42.018;23.670;2023-02-18T08:31:19;92155.00;;;7.70;49.79
44481;BME280;30184;42.018;23.670;2023-02-18T08:33:49;91989.16;;;6.57;49.84
44481;BME280;30184;42.018;23.670;2023-02-18T08:36:20;91959.84;;;6.59;49.01
44481;BME280;30184;42.018;23.670;2023-02-18T08:38:49;92138.22;;;7.93;48.29
44481;BME280;30184;42.018;23.670;2023-02-18T08:41:18;92129.34;;;7.96;48.56
44481;BME280;30184;42.018;23.670;2023-02-18T08:43:47;92081.22;;;7.32;48.17
44481;BME280;30184;42.018;23.670;2023-02-18T08:46:16;92130.38;;;8.09;47.65
44481;BME280;30184;42.018;23.670;2023-02-18T08:48:45;92132.22;;;8.19;48.06
44481;BME280;30184;42.018;23.670;2023-02-18T08:51:16;92079.50;;;7.52;47.47
44481;BME280;30184;42.018;23.670;2023-02-18T08:53:47;92137.88;;;8.35;46.28
44481;BME280;30184;42.018;23.670;2023-02-18T08:56:16;92129.75;;;8.39;46.27
44481;BME280;30184;42.018;23.670;2023-02-18T08:58:45;92134.69;;;8.44;46.19
44481;BME280;30184;42.018;23.670;2023-02-18T09:01:14;92131.88;;;8.54;46.01
44481;BME280;30184;42.018;23.670;2023-02-18T09:03:43;92096.50;;;8.42;45.43
44481;BME280;30184;42.018;23.670;2023-02-18T09:06:12;92132.47;;;8.73;44.67
44481;BME280;30184;42.018;23.670;2023-02-18T09:08:41;92080.88;;;8.56;44.83
44481;BME280;30184;42.018;23.670;2023-02-18T09:11:12;92071.19;;;8.59;43.63
44481;BME280;30184;42.018;23.670;2023-02-18T09:13:41;92121.59;;;9.10;43.84
44481;BME280;30184;42.018;23.670;2023-02-18T09:16:12;92019.50;;;8.50;42.46
44481;BME280;30184;42.018;23.670;2023-02-18T09:18:41;92128.38;;;9.52;42.96
44481;BME280;30184;42.018;23.670;2023-02-18T09:21:11;92128.13;;;9.70;42.06
44481;BME280;30184;42.018;23.670;2023-02-18T09:23:42;92056.69;;;9.33;41.48
44481;BME280;30184;42.018;23.670;2023-02-18T09:26:14;92108.94;;;10.07;42.01
44481;BME280;30184;42.018;23.670;2023-02-18T09:28:43;92101.53;;;10.35;41.35
44481;BME280;30184;42.018;23.670;2023-02-18T09:31:14;92100.72;;;10.58;39.33
44481;BME280;30184;42.018;23.670;2023-02-18T09:33:45;92053.97;;;10.50;38.21
44481;BME280;30184;42.018;23.670;2023-02-18T09:36:15;92083.56;;;10.84;38.53
44481;BME280;30184;42.018;23.670;2023-02-18T09:38:44;91929.13;;;9.71;37.87
44481;BME280;30184;42.018;23.670;2023-02-18T09:41:24;92025.25;;;10.72;37.56
44481;BME280;30184;42.018;23.670;2023-02-18T09:43:57;92084.78;;;11.19;36.74
44481;BME280;30184;42.018;23.670;2023-02-18T09:46:29;92021.66;;;10.75;36.00
44481;BME280;30184;42.018;23.670;2023-02-18T09:49:03;92076.09;;;11.44;36.40
44481;BME280;30184;42.018;23.670;2023-02-18T09:51:35;92090.66;;;11.70;35.45
44481;BME280;30184;42.018;23.670;2023-02-18T09:54:08;92091.63;;;11.79;34.93
44481;BME280;30184;42.018;23.670;2023-02-18T09:56:39;92036.00;;;10.96;35.03
44481;BME280;30184;42.018;23.670;2023-02-18T09:59:13;92089.69;;;11.96;35.09
44481;BME280;30184;42.018;23.670;2023-02-18T10:01:45;92069.38;;;12.01;35.30
44481;BME280;30184;42.018;23.670;2023-02-18T10:04:17;92079.13;;;12.14;33.98
44481;BME280;30184;42.018;23.670;2023-02-18T10:06:51;92078.97;;;12.21;34.09
44481;BME280;30184;42.018;23.670;2023-02-18T10:09:23;92066.38;;;12.27;33.51
44481;BME280;30184;42.018;23.670;2023-02-18T10:11:57;92045.94;;;12.36;33.72
44481;BME280;30184;42.018;23.670;2023-02-18T10:14:26;92046.16;;;12.57;34.43
44481;BME280;30184;42.018;23.670;2023-02-18T10:16:57;92066.50;;;12.82;33.71
44481;BME280;30184;42.018;23.670;2023-02-18T10:19:29;92059.09;;;12.82;32.66
44481;BME280;30184;42.018;23.670;2023-02-18T10:22:01;92027.00;;;12.61;32.74
44481;BME280;30184;42.018;23.670;2023-02-18T10:24:34;92053.97;;;12.84;32.14
44481;BME280;30184;42.018;23.670;2023-02-18T10:27:07;92057.56;;;12.81;32.46
44481;BME280;30184;42.018;23.670;2023-02-18T10:29:36;92047.44;;;12.82;32.78
44481;BME280;30184;42.018;23.670;2023-02-18T10:32:11;91861.97;;;11.68;32.84
44481;BME280;30184;42.018;23.670;2023-02-18T10:34:47;92032.09;;;12.88;33.55
44481;BME280;30184;42.018;23.670;2023-02-18T10:37:30;92026.34;;;12.98;33.02
44481;BME280;30184;42.018;23.670;2023-02-18T10:40:05;92018.41;;;13.04;32.35
44481;BME280;30184;42.018;23.670;2023-02-18T10:42:45;92011.22;;;13.10;32.23
44481;BME280;30184;42.018;23.670;2023-02-18T10:45:25;92009.19;;;13.27;32.43
44481;BME280;30184;42.018;23.670;2023-02-18T10:48:05;91996.53;;;13.45;31.78
44481;BME280;30184;42.018;23.670;2023-02-18T10:50:39;91984.31;;;13.63;31.96
44481;BME280;30184;42.018;23.670;2023-02-18T10:53:11;91996.09;;;13.72;31.78
44481;BME280;30184;42.018;23.670;2023-02-18T10:55:43;91989.13;;;13.71;31.61
44481;BME280;30184;42.018;23.670;2023-02-18T10:58:30;91975.81;;;13.61;31.18
44481;BME280;30184;42.018;23.670;2023-02-18T11:00:59;91967.09;;;13.53;31.52
44481;BME280;30184;42.018;23.670;2023-02-18T11:03:40;91926.22;;;13.28;31.52
44481;BME280;30184;42.018;23.670;2023-02-18T11:06:20;91919.34;;;13.36;32.01
44481;BME280;30184;42.018;23.670;2023-02-18T11:08:49;91953.53;;;13.75;31.86
44481;BME280;30184;42.018;23.670;2023-02-18T11:11:23;91912.34;;;13.60;31.72
44481;BME280;30184;42.018;23.670;2023-02-18T11:13:56;91858.09;;;13.28;31.11
44481;BME280;30184;42.018;23.670;2023-02-18T11:16:36;91982.38;;;14.10;31.87
44481;BME280;30184;42.018;23.670;2023-02-18T11:19:33;91951.44;;;14.26;31.47
44481;BME280;30184;42.018;23.670;2023-02-18T11:22:06;91948.66;;;14.39;31.38
44481;BME280;30184;42.018;23.670;2023-02-18T11:24:38;91946.66;;;14.52;31.09
44481;BME280;30184;42.018;23.670;2023-02-18T11:27:08;91790.94;;;13.34;31.58
44481;BME280;30184;42.018;23.670;2023-02-18T11:29:40;91898.72;;;13.95;31.16
44481;BME280;30184;42.018;23.670;2023-02-18T11:32:10;91864.56;;;13.90;31.24
44481;BME280;30184;42.018;23.670;2023-02-18T11:34:42;91918.06;;;14.66;31.73
44481;BME280;30184;42.018;23.670;2023-02-18T11:37:17;91922.97;;;14.71;30.43
44481;BME280;30184;42.018;23.670;2023-02-18T11:39:49;91924.22;;;14.79;30.27
44481;BME280;30184;42.018;23.670;2023-02-18T11:42:20;91909.66;;;14.82;31.19
44481;BME280;30184;42.018;23.670;2023-02-18T11:44:52;91892.00;;;14.74;30.89
44481;BME280;30184;42.018;23.670;2023-02-18T11:47:26;91856.38;;;14.55;31.59
44481;BME280;30184;42.018;23.670;2023-02-18T11:50:14;91921.69;;;14.93;31.40
44481;BME280;30184;42.018;23.670;2023-02-18T11:52:46;91851.34;;;14.45;31.59
44481;BME280;30184;42.018;23.670;2023-02-18T11:55:18;91888.53;;;14.51;31.38
44481;BME280;30184;42.018;23.670;2023-02-18T11:57:50;91911.88;;;14.74;31.84
44481;BME280;30184;42.018;23.670;2023-02-18T12:00:30;91777.97;;;13.81;31.36
44481;BME280;30184;42.018;23.670;2023-02-18T12:03:07;91853.03;;;14.30;31.80
44481;BME280;30184;42.018;23.670;2023-02-18T12:05:43;91760.00;;;13.50;31.94
44481;BME280;30184;42.018;23.670;2023-02-18T12:08:16;91902.81;;;14.55;34.36
44481;BME280;30184;42.018;23.670;2023-02-18T12:10:48;91899.78;;;14.53;35.05
44481;BME280;30184;42.018;23.670;2023-02-18T12:13:23;91899.59;;;14.48;33.47
44481;BME280;30184;42.018;23.670;2023-02-18T12:16:02;91896.91;;;14.35;32.75
44481;BME280;30184;42.018;23.670;2023-02-18T12:18:59;91886.03;;;14.23;32.67
44481;BME280;30184;42.018;23.670;2023-02-18T12:21:44;91890.75;;;14.22;32.58
44481;BME280;30184;42.018;23.670;2023-02-18T12:24:28;91889.47;;;14.14;32.56
44481;BME280;30184;42.018;23.670;2023-02-18T12:27:09;91890.50;;;14.07;32.81
44481;BME280;30184;42.018;23.670;2023-02-18T12:29:56;91868.53;;;13.89;33.55
44481;BME280;30184;42.018;23.670;2023-02-18T12:32:35;91870.78;;;13.91;33.98
44481;BME280;30184;42.018;23.670;2023-02-18T12:35:22;91880.50;;;13.92;33.43
44481;BME280;30184;42.018;23.670;2023-02-18T12:38:16;91941.72;;;13.91;34.31
44481;BME280;30184;42.018;23.670;2023-02-18T12:41:00;91883.00;;;13.99;34.24
44481;BME280;30184;42.018;23.670;2023-02-18T12:43:38;91879.56;;;14.07;34.23
44481;BME280;30184;42.018;23.670;2023-02-18T12:46:32;91880.09;;;14.15;36.16
44481;BME280;30184;42.018;23.670;2023-02-18T12:49:30;91885.28;;;14.22;36.49
44481;BME280;30184;42.018;23.670;2023-02-18T12:52:17;91861.97;;;14.30;35.66
44481;BME280;30184;42.018;23.670;2023-02-18T12:55:16;91833.81;;;14.33;34.30
44481;BME280;30184;42.018;23.670;2023-02-18T12:57:58;91845.13;;;14.44;34.58
44481;BME280;30184;42.018;23.670;2023-02-18T13:04:12;91841.91;;;14.68;33.74
44481;BME280;30184;42.018;23.670;2023-02-18T13:06:57;91849.00;;;14.96;33.35
44481;BME280;30184;42.018;23.670;2023-02-18T13:09:42;91841.31;;;15.13;32.69
44481;BME280;30184;42.018;23.670;2023-02-18T13:12:20;91808.84;;;14.75;32.99
44481;BME280;30184;42.018;23.670;2023-02-18T13:14:55;91830.09;;;15.20;32.83
44481;BME280;30184;42.018;23.670;2023-02-18T13:17:32;91636.47;;;14.24;32.83
44481;BME280;30184;42.018;23.670;2023-02-18T13:20:05;91834.00;;;15.59;32.45
44481;BME280;30184;42.018;23.670;2023-02-18T13:22:42;91825.97;;;15.55;32.85
44481;BME280;30184;42.018;23.670;2023-02-18T13:25:13;91797.63;;;15.40;33.15
44481;BME280;30184;42.018;23.670;2023-02-18T13:27:49;91837.97;;;15.67;32.68
44481;BME280;30184;42.018;23.670;2023-02-18T13:30:26;91841.75;;;15.60;32.65
44481;BME280;30184;42.018;23.670;2023-02-18T13:33:07;91825.31;;;15.51;32.82